sensor_id;sensor_type;location;lat;lon;timestamp;pressure;altitude;pressure_sealevel;temperature
68440;BMP180;55421;51.600;5.718;2022-10-13T00:00:44;220637.80;;;11.10
68440;BMP180;55421;51.600;5.718;2022-10-13T00:03:28;220648.20;;;11.10
68440;BMP180;55421;51.600;5.718;2022-10-13T00:05:54;220636.59;;;11.10
68440;BMP180;55421;51.600;5.718;2022-10-13T00:08:21;220626.59;;;11.02
68440;BMP180;55421;51.600;5.718;2022-10-13T00:10:49;220615.80;;;11.00
68440;BMP180;55421;51.600;5.718;2022-10-13T00:13:18;220611.41;;;11.00
68440;BMP180;55421;51.600;5.718;2022-10-13T00:15:46;220618.59;;;11.00
68440;BMP180;55421;51.600;5.718;2022-10-13T00:18:14;220617.41;;;11.00
68440;BMP180;55421;51.600;5.718;2022-10-13T00:20:47;220647.00;;;11.10
68440;BMP180;55421;51.600;5.718;2022-10-13T00:23:15;220651.41;;;11.10
68440;BMP180;55421;51.600;5.718;2022-10-13T00:25:46;220653.00;;;11.10
68440;BMP180;55421;51.600;5.718;2022-10-13T00:28:15;220657.41;;;11.10
68440;BMP180;55421;51.600;5.718;2022-10-13T00:30:41;220664.20;;;11.10
68440;BMP180;55421;51.600;5.718;2022-10-13T00:33:09;220672.20;;;11.10
68440;BMP180;55421;51.600;5.718;2022-10-13T00:35:43;220697.59;;;11.20
68440;BMP180;55421;51.600;5.718;2022-10-13T00:38:11;220712.41;;;11.20
68440;BMP180;55421;51.600;5.718;2022-10-13T00:40:53;220716.80;;;11.20
68440;BMP180;55421;51.600;5.718;2022-10-13T00:43:29;220718.41;;;11.20
68440;BMP180;55421;51.600;5.718;2022-10-13T00:46:14;220728.80;;;11.20
68440;BMP180;55421;51.600;5.718;2022-10-13T00:48:42;220720.59;;;11.20
68440;BMP180;55421;51.600;5.718;2022-10-13T00:51:13;220737.80;;;11.20
68440;BMP180;55421;51.600;5.718;2022-10-13T00:53:43;220776.41;;;11.20
68440;BMP180;55421;51.600;5.718;2022-10-13T00:56:12;220771.59;;;11.28
68440;BMP180;55421;51.600;5.718;2022-10-13T00:58:41;220845.00;;;11.30
68440;BMP180;55421;51.600;5.718;2022-10-13T01:01:08;220867.80;;;11.30
68440;BMP180;55421;51.600;5.718;2022-10-13T01:03:36;220901.41;;;11.30
68440;BMP180;55421;51.600;5.718;2022-10-13T01:06:04;220960.41;;;11.32
68440;BMP180;55421;51.600;5.718;2022-10-13T01:08:32;220944.80;;;11.30
68440;BMP180;55421;51.600;5.718;2022-10-13T01:11:41;220983.20;;;11.40
68440;BMP180;55421;51.600;5.718;2022-10-13T01:14:29;221052.59;;;11.40
68440;BMP180;55421;51.600;5.718;2022-10-13T01:17:21;221049.80;;;11.40
68440;BMP180;55421;51.600;5.718;2022-10-13T01:20:16;221031.00;;;11.40
68440;BMP180;55421;51.600;5.718;2022-10-13T01:23:22;221017.20;;;11.38
68440;BMP180;55421;51.600;5.718;2022-10-13T01:26:22;221060.80;;;11.40
68440;BMP180;55421;51.600;5.718;2022-10-13T01:29:23;221155.59;;;11.40
68440;BMP180;55421;51.600;5.718;2022-10-13T01:32:18;221220.20;;;11.40
68440;BMP180;55421;51.600;5.718;2022-10-13T01:37:54;221175.00;;;11.40
68440;BMP180;55421;51.600;5.718;2022-10-13T01:40:50;221103.20;;;11.40
68440;BMP180;55421;51.600;5.718;2022-10-13T01:43:27;221342.59;;;11.40
68440;BMP180;55421;51.600;5.718;2022-10-13T01:46:30;221444.59;;;11.48
68440;BMP180;55421;51.600;5.718;2022-10-13T01:49:04;221527.20;;;11.50
68440;BMP180;55421;51.600;5.718;2022-10-13T01:51:34;221554.20;;;11.56
68440;BMP180;55421;51.600;5.718;2022-10-13T01:54:00;221619.20;;;11.56
68440;BMP180;55421;51.600;5.718;2022-10-13T01:56:27;221647.59;;;11.60
68440;BMP180;55421;51.600;5.718;2022-10-13T01:58:57;221851.20;;;11.60
68440;BMP180;55421;51.600;5.718;2022-10-13T02:04:56;222017.20;;;11.66
68440;BMP180;55421;51.600;5.718;2022-10-13T02:07:41;222193.41;;;11.66
68440;BMP180;55421;51.600;5.718;2022-10-13T02:10:22;222098.80;;;11.64
68440;BMP180;55421;51.600;5.718;2022-10-13T02:12:58;222136.00;;;11.62
68440;BMP180;55421;51.600;5.718;2022-10-13T02:15:35;222267.41;;;11.68
68440;BMP180;55421;51.600;5.718;2022-10-13T02:18:03;222540.41;;;11.70
68440;BMP180;55421;51.600;5.718;2022-10-13T02:20:31;222484.00;;;11.70
68440;BMP180;55421;51.600;5.718;2022-10-13T02:23:06;222525.80;;;11.76
68440;BMP180;55421;51.600;5.718;2022-10-13T02:25:34;222683.00;;;11.74
68440;BMP180;55421;51.600;5.718;2022-10-13T02:28:01;222716.41;;;11.70
68440;BMP180;55421;51.600;5.718;2022-10-13T02:30:30;222894.80;;;11.78
68440;BMP180;55421;51.600;5.718;2022-10-13T02:32:59;223685.59;;;11.80
68440;BMP180;55421;51.600;5.718;2022-10-13T02:35:27;223467.80;;;11.80
68440;BMP180;55421;51.600;5.718;2022-10-13T02:37:53;223253.59;;;11.86
68440;BMP180;55421;51.600;5.718;2022-10-13T02:40:20;223436.80;;;11.90
68440;BMP180;55421;51.600;5.718;2022-10-13T02:42:46;223797.59;;;11.82
68440;BMP180;55421;51.600;5.718;2022-10-13T02:45:13;223496.80;;;11.80
68440;BMP180;55421;51.600;5.718;2022-10-13T02:47:40;223049.00;;;11.80
68440;BMP180;55421;51.600;5.718;2022-10-13T02:50:07;223251.00;;;11.80
68440;BMP180;55421;51.600;5.718;2022-10-13T02:52:34;222946.41;;;11.80
68440;BMP180;55421;51.600;5.718;2022-10-13T02:55:01;222690.59;;;11.80
68440;BMP180;55421;51.600;5.718;2022-10-13T02:57:27;222854.00;;;11.80
68440;BMP180;55421;51.600;5.718;2022-10-13T02:59:54;223325.80;;;11.80
68440;BMP180;55421;51.600;5.718;2022-10-13T03:02:22;223246.00;;;11.70
68440;BMP180;55421;51.600;5.718;2022-10-13T03:04:48;223613.59;;;11.70
68440;BMP180;55421;51.600;5.718;2022-10-13T03:07:16;224036.00;;;11.70
68440;BMP180;55421;51.600;5.718;2022-10-13T03:09:43;223584.20;;;11.70
68440;BMP180;55421;51.600;5.718;2022-10-13T03:12:09;223888.20;;;11.70
68440;BMP180;55421;51.600;5.718;2022-10-13T03:14:36;224348.59;;;11.70
68440;BMP180;55421;51.600;5.718;2022-10-13T03:17:03;224716.41;;;11.70
68440;BMP180;55421;51.600;5.718;2022-10-13T03:19:30;225354.00;;;11.70
68440;BMP180;55421;51.600;5.718;2022-10-13T03:21:57;224602.59;;;11.70
68440;BMP180;55421;51.600;5.718;2022-10-13T03:24:23;224987.00;;;11.70
68440;BMP180;55421;51.600;5.718;2022-10-13T03:26:50;225414.20;;;11.70
68440;BMP180;55421;51.600;5.718;2022-10-13T03:29:17;225843.41;;;11.70
68440;BMP180;55421;51.600;5.718;2022-10-13T03:31:43;225757.20;;;11.70
68440;BMP180;55421;51.600;5.718;2022-10-13T03:34:11;225266.59;;;11.70
68440;BMP180;55421;51.600;5.718;2022-10-13T03:36:38;225412.80;;;11.70
68440;BMP180;55421;51.600;5.718;2022-10-13T03:39:05;225484.20;;;11.70
68440;BMP180;55421;51.600;5.718;2022-10-13T03:41:32;225365.00;;;11.70
68440;BMP180;55421;51.600;5.718;2022-10-13T03:43:58;225142.20;;;11.70
68440;BMP180;55421;51.600;5.718;2022-10-13T03:46:28;225062.20;;;11.70
68440;BMP180;55421;51.600;5.718;2022-10-13T03:48:55;226187.41;;;11.70
68440;BMP180;55421;51.600;5.718;2022-10-13T03:51:23;225488.59;;;11.62
68440;BMP180;55421;51.600;5.718;2022-10-13T03:53:51;226076.59;;;11.60
68440;BMP180;55421;51.600;5.718;2022-10-13T03:56:22;226296.20;;;11.60
68440;BMP180;55421;51.600;5.718;2022-10-13T03:58:59;227988.59;;;11.60
68440;BMP180;55421;51.600;5.718;2022-10-13T04:01:28;226771.00;;;11.70
68440;BMP180;55421;51.600;5.718;2022-10-13T04:03:57;226779.41;;;11.70
68440;BMP180;55421;51.600;5.718;2022-10-13T04:06:25;230358.00;;;11.70
68440;BMP180;55421;51.600;5.718;2022-10-13T04:08:53;227737.20;;;11.80
68440;BMP180;55421;51.600;5.718;2022-10-13T04:11:21;227356.80;;;11.80
68440;BMP180;55421;51.600;5.718;2022-10-13T04:13:47;228047.00;;;11.80
68440;BMP180;55421;51.600;5.718;2022-10-13T04:16:24;227833.80;;;11.80
68440;BMP180;55421;51.600;5.718;2022-10-13T04:18:58;228060.80;;;11.80
68440;BMP180;55421;51.600;5.718;2022-10-13T04:21:27;227799.59;;;11.80
68440;BMP180;55421;51.600;5.718;2022-10-13T04:23:56;227594.20;;;11.72
68440;BMP180;55421;51.600;5.718;2022-10-13T04:26:26;227748.00;;;11.70
68440;BMP180;55421;51.600;5.718;2022-10-13T04:28:54;228461.59;;;11.70
68440;BMP180;55421;51.600;5.718;2022-10-13T04:31:22;228769.80;;;11.70
68440;BMP180;55421;51.600;5.718;2022-10-13T04:33:49;228862.41;;;11.76
68440;BMP180;55421;51.600;5.718;2022-10-13T04:36:17;228998.59;;;11.80
68440;BMP180;55421;51.600;5.718;2022-10-13T04:38:44;228969.20;;;11.80
68440;BMP180;55421;51.600;5.718;2022-10-13T04:41:12;228794.20;;;11.80
68440;BMP180;55421;51.600;5.718;2022-10-13T04:43:40;229221.80;;;11.80
68440;BMP180;55421;51.600;5.718;2022-10-13T04:46:14;229192.80;;;11.80
68440;BMP180;55421;51.600;5.718;2022-10-13T04:48:41;233750.00;;;11.80
68440;BMP180;55421;51.600;5.718;2022-10-13T04:51:11;229802.59;;;11.80
68440;BMP180;55421;51.600;5.718;2022-10-13T04:53:38;229673.80;;;11.80
68440;BMP180;55421;51.600;5.718;2022-10-13T04:56:12;229373.59;;;11.80
68440;BMP180;55421;51.600;5.718;2022-10-13T04:58:41;229853.20;;;11.80
68440;BMP180;55421;51.600;5.718;2022-10-13T05:01:13;230270.59;;;11.80
68440;BMP180;55421;51.600;5.718;2022-10-13T05:03:41;228952.41;;;11.80
68440;BMP180;55421;51.600;5.718;2022-10-13T05:06:17;228874.41;;;11.80
68440;BMP180;55421;51.600;5.718;2022-10-13T05:08:43;229207.59;;;11.80
68440;BMP180;55421;51.600;5.718;2022-10-13T05:11:10;229323.59;;;11.80
68440;BMP180;55421;51.600;5.718;2022-10-13T05:13:37;228976.59;;;11.80
68440;BMP180;55421;51.600;5.718;2022-10-13T05:16:09;229460.59;;;11.80
68440;BMP180;55421;51.600;5.718;2022-10-13T05:18:36;228421.20;;;11.80
68440;BMP180;55421;51.600;5.718;2022-10-13T05:21:17;228464.00;;;11.80
68440;BMP180;55421;51.600;5.718;2022-10-13T05:23:44;229115.41;;;11.80
68440;BMP180;55421;51.600;5.718;2022-10-13T05:26:15;229248.41;;;11.90
68440;BMP180;55421;51.600;5.718;2022-10-13T05:28:43;230276.20;;;11.90
68440;BMP180;55421;51.600;5.718;2022-10-13T05:31:18;230466.80;;;11.92
68440;BMP180;55421;51.600;5.718;2022-10-13T05:33:47;229899.59;;;11.90
68440;BMP180;55421;51.600;5.718;2022-10-13T05:36:20;230123.41;;;11.90
68440;BMP180;55421;51.600;5.718;2022-10-13T05:38:57;230643.20;;;11.90
68440;BMP180;55421;51.600;5.718;2022-10-13T05:41:25;230798.20;;;11.90
68440;BMP180;55421;51.600;5.718;2022-10-13T05:43:56;230201.80;;;11.86
68440;BMP180;55421;51.600;5.718;2022-10-13T05:46:24;230235.41;;;11.90
68440;BMP180;55421;51.600;5.718;2022-10-13T05:48:51;229496.80;;;11.88
68440;BMP180;55421;51.600;5.718;2022-10-13T05:51:31;229019.80;;;11.80
68440;BMP180;55421;51.600;5.718;2022-10-13T05:54:22;228833.00;;;11.80
68440;BMP180;55421;51.600;5.718;2022-10-13T05:56:56;229638.41;;;11.80
68440;BMP180;55421;51.600;5.718;2022-10-13T05:59:29;229485.59;;;11.82
68440;BMP180;55421;51.600;5.718;2022-10-13T06:02:00;230192.41;;;11.90
68440;BMP180;55421;51.600;5.718;2022-10-13T06:04:38;229470.59;;;11.90
68440;BMP180;55421;51.600;5.718;2022-10-13T06:07:06;229865.20;;;11.90
68440;BMP180;55421;51.600;5.718;2022-10-13T06:09:35;230285.59;;;11.90
68440;BMP180;55421;51.600;5.718;2022-10-13T06:12:07;230999.41;;;11.84
68440;BMP180;55421;51.600;5.718;2022-10-13T06:14:35;231749.80;;;11.90
68440;BMP180;55421;51.600;5.718;2022-10-13T06:17:01;232211.59;;;11.90
68440;BMP180;55421;51.600;5.718;2022-10-13T06:19:28;232808.20;;;11.90
68440;BMP180;55421;51.600;5.718;2022-10-13T06:21:54;231734.41;;;11.92
68440;BMP180;55421;51.600;5.718;2022-10-13T06:24:21;231929.80;;;11.94
68440;BMP180;55421;51.600;5.718;2022-10-13T06:26:47;231772.59;;;12.00
68440;BMP180;55421;51.600;5.718;2022-10-13T06:29:14;232041.41;;;12.00
68440;BMP180;55421;51.600;5.718;2022-10-13T06:31:40;232758.80;;;12.00
68440;BMP180;55421;51.600;5.718;2022-10-13T06:34:07;232386.00;;;12.00
68440;BMP180;55421;51.600;5.718;2022-10-13T06:36:33;232515.00;;;12.04
68440;BMP180;55421;51.600;5.718;2022-10-13T06:39:00;233421.20;;;12.10
68440;BMP180;55421;51.600;5.718;2022-10-13T06:41:26;232833.59;;;12.10
68440;BMP180;55421;51.600;5.718;2022-10-13T06:43:53;232524.59;;;12.10
68440;BMP180;55421;51.600;5.718;2022-10-13T06:46:19;232800.41;;;12.10
68440;BMP180;55421;51.600;5.718;2022-10-13T06:48:49;233186.80;;;12.20
68440;BMP180;55421;51.600;5.718;2022-10-13T06:51:16;233890.00;;;12.20
68440;BMP180;55421;51.600;5.718;2022-10-13T06:53:43;233687.41;;;12.20
68440;BMP180;55421;51.600;5.718;2022-10-13T06:56:09;234582.20;;;12.30
68440;BMP180;55421;51.600;5.718;2022-10-13T06:58:36;234576.20;;;12.30
68440;BMP180;55421;51.600;5.718;2022-10-13T07:01:05;234422.20;;;12.30
68440;BMP180;55421;51.600;5.718;2022-10-13T07:03:32;234915.20;;;12.22
68440;BMP180;55421;51.600;5.718;2022-10-13T07:06:04;234427.20;;;12.20
68440;BMP180;55421;51.600;5.718;2022-10-13T07:08:32;235157.41;;;12.26
68440;BMP180;55421;51.600;5.718;2022-10-13T07:11:08;235294.41;;;12.30
68440;BMP180;55421;51.600;5.718;2022-10-13T07:13:35;235243.80;;;12.30
68440;BMP180;55421;51.600;5.718;2022-10-13T07:16:03;235405.20;;;12.40
68440;BMP180;55421;51.600;5.718;2022-10-13T07:18:31;235786.59;;;12.40
68440;BMP180;55421;51.600;5.718;2022-10-13T07:20:59;235582.41;;;12.38
68440;BMP180;55421;51.600;5.718;2022-10-13T07:23:26;235547.59;;;12.40
68440;BMP180;55421;51.600;5.718;2022-10-13T07:25:54;236156.59;;;12.40
68440;BMP180;55421;51.600;5.718;2022-10-13T07:28:24;237304.41;;;12.50
68440;BMP180;55421;51.600;5.718;2022-10-13T07:30:51;237879.00;;;12.50
68440;BMP180;55421;51.600;5.718;2022-10-13T07:33:19;188657.59;;;12.60
68440;BMP180;55421;51.600;5.718;2022-10-13T07:35:45;189070.20;;;12.60
68440;BMP180;55421;51.600;5.718;2022-10-13T07:38:12;188752.80;;;12.66
68440;BMP180;55421;51.600;5.718;2022-10-13T07:40:39;189365.41;;;12.70
68440;BMP180;55421;51.600;5.718;2022-10-13T07:43:05;190094.80;;;12.70
68440;BMP180;55421;51.600;5.718;2022-10-13T07:45:32;190465.00;;;12.70
68440;BMP180;55421;51.600;5.718;2022-10-13T07:47:58;190946.20;;;12.80
68440;BMP180;55421;51.600;5.718;2022-10-13T07:50:25;190877.00;;;12.80
68440;BMP180;55421;51.600;5.718;2022-10-13T07:52:51;190456.80;;;12.80
68440;BMP180;55421;51.600;5.718;2022-10-13T07:55:17;191075.00;;;12.80
68440;BMP180;55421;51.600;5.718;2022-10-13T07:57:44;190386.00;;;12.70
68440;BMP180;55421;51.600;5.718;2022-10-13T08:00:11;190338.20;;;12.80
68440;BMP180;55421;51.600;5.718;2022-10-13T08:02:37;190079.41;;;12.90
68440;BMP180;55421;51.600;5.718;2022-10-13T08:05:04;190110.20;;;12.90
68440;BMP180;55421;51.600;5.718;2022-10-13T08:07:31;192531.00;;;12.96
68440;BMP180;55421;51.600;5.718;2022-10-13T08:09:57;192485.41;;;13.00
68440;BMP180;55421;51.600;5.718;2022-10-13T08:12:24;192412.00;;;13.00
68440;BMP180;55421;51.600;5.718;2022-10-13T08:14:51;193404.59;;;13.00
68440;BMP180;55421;51.600;5.718;2022-10-13T08:17:17;193924.20;;;13.00
68440;BMP180;55421;51.600;5.718;2022-10-13T08:19:43;145878.80;;;13.02
68440;BMP180;55421;51.600;5.718;2022-10-13T08:22:11;145741.80;;;13.10
68440;BMP180;55421;51.600;5.718;2022-10-13T08:24:37;146984.59;;;13.18
68440;BMP180;55421;51.600;5.718;2022-10-13T08:27:04;147927.20;;;13.20
68440;BMP180;55421;51.600;5.718;2022-10-13T08:29:30;148126.00;;;13.30
68440;BMP180;55421;51.600;5.718;2022-10-13T08:31:57;149929.59;;;13.34
68440;BMP180;55421;51.600;5.718;2022-10-13T08:34:24;148597.80;;;13.40
68440;BMP180;55421;51.600;5.718;2022-10-13T08:36:52;149667.59;;;13.50
68440;BMP180;55421;51.600;5.718;2022-10-13T08:39:22;101857.80;;;13.60
68440;BMP180;55421;51.600;5.718;2022-10-13T08:41:49;103289.20;;;13.68
68440;BMP180;55421;51.600;5.718;2022-10-13T08:44:34;103632.20;;;13.70
68440;BMP180;55421;51.600;5.718;2022-10-13T08:47:23;56106.60;;;13.78
68440;BMP180;55421;51.600;5.718;2022-10-13T08:49:59;56792.60;;;13.80
68440;BMP180;55421;51.600;5.718;2022-10-13T08:52:44;55962.60;;;13.80
68440;BMP180;55421;51.600;5.718;2022-10-13T08:55:24;57004.20;;;13.84
68440;BMP180;55421;51.600;5.718;2022-10-13T08:57:53;9335.20;;;13.98
68440;BMP180;55421;51.600;5.718;2022-10-13T09:00:19;9570.20;;;14.10
68440;BMP180;55421;51.600;5.718;2022-10-13T09:02:47;57453.80;;;14.12
68440;BMP180;55421;51.600;5.718;2022-10-13T09:05:42;9177.80;;;14.20
68440;BMP180;55421;51.600;5.718;2022-10-13T09:08:19;9846.40;;;14.30
68440;BMP180;55421;51.600;5.718;2022-10-13T09:10:50;10157.00;;;14.28
68440;BMP180;55421;51.600;5.718;2022-10-13T09:13:19;9359.80;;;14.26
68440;BMP180;55421;51.600;5.718;2022-10-13T09:15:48;8967.20;;;14.28
68440;BMP180;55421;51.600;5.718;2022-10-13T09:18:15;8531.80;;;14.30
68440;BMP180;55421;51.600;5.718;2022-10-13T09:20:42;8689.20;;;14.30
68440;BMP180;55421;51.600;5.718;2022-10-13T09:23:19;9015.20;;;14.30
68440;BMP180;55421;51.600;5.718;2022-10-13T09:25:50;9453.00;;;14.30
68440;BMP180;55421;51.600;5.718;2022-10-13T09:28:30;9277.00;;;14.32
68440;BMP180;55421;51.600;5.718;2022-10-13T09:31:11;57650.60;;;14.30
68440;BMP180;55421;51.600;5.718;2022-10-13T09:33:38;10563.20;;;14.30
68440;BMP180;55421;51.600;5.718;2022-10-13T09:36:15;56502.80;;;14.34
68440;BMP180;55421;51.600;5.718;2022-10-13T09:41:34;56947.00;;;14.32
68440;BMP180;55421;51.600;5.718;2022-10-13T09:44:11;56344.20;;;14.30
68440;BMP180;55421;51.600;5.718;2022-10-13T09:46:50;55160.20;;;14.30
68440;BMP180;55421;51.600;5.718;2022-10-13T09:49:38;101406.80;;;14.30
68440;BMP180;55421;51.600;5.718;2022-10-13T10:00:20;102038.80;;;14.20
68440;BMP180;55421;51.600;5.718;2022-10-13T10:05:39;103213.20;;;14.20
68440;BMP180;55421;51.600;5.718;2022-10-13T10:08:20;100919.00;;;14.20
68440;BMP180;55421;51.600;5.718;2022-10-13T10:10:47;101730.20;;;14.14
68440;BMP180;55421;51.600;5.718;2022-10-13T10:13:14;23804.20;;;14.18
68440;BMP180;55421;51.600;5.718;2022-10-13T10:18:32;50375.20;;;14.22
68440;BMP180;55421;51.600;5.718;2022-10-13T10:24:43;103792.20;;;14.30
68440;BMP180;55421;51.600;5.718;2022-10-13T10:30:14;101669.00;;;14.30
68440;BMP180;55421;51.600;5.718;2022-10-13T10:32:53;149057.59;;;14.20
68440;BMP180;55421;51.600;5.718;2022-10-13T10:35:47;147972.80;;;14.20
68440;BMP180;55421;51.600;5.718;2022-10-13T10:38:53;148283.41;;;14.20
68440;BMP180;55421;51.600;5.718;2022-10-13T10:41:49;147656.00;;;14.20
68440;BMP180;55421;51.600;5.718;2022-10-13T10:44:28;145668.80;;;14.10
68440;BMP180;55421;51.600;5.718;2022-10-13T10:47:04;192799.59;;;14.10
68440;BMP180;55421;51.600;5.718;2022-10-13T10:49:36;192691.20;;;14.10
68440;BMP180;55421;51.600;5.718;2022-10-13T10:52:10;190978.20;;;14.10
68440;BMP180;55421;51.600;5.718;2022-10-13T10:54:58;191495.59;;;14.10
68440;BMP180;55421;51.600;5.718;2022-10-13T10:57:47;192761.80;;;14.20
68440;BMP180;55421;51.600;5.718;2022-10-13T11:00:20;193386.59;;;14.18
68440;BMP180;55421;51.600;5.718;2022-10-13T11:03:15;193235.00;;;14.10
68440;BMP180;55421;51.600;5.718;2022-10-13T11:06:05;194096.00;;;14.10
68440;BMP180;55421;51.600;5.718;2022-10-13T11:08:47;146493.80;;;14.20
68440;BMP180;55421;51.600;5.718;2022-10-13T11:14:26;145904.41;;;14.14
68440;BMP180;55421;51.600;5.718;2022-10-13T11:17:15;147282.00;;;14.14
68440;BMP180;55421;51.600;5.718;2022-10-13T11:19:45;146123.00;;;14.10
68440;BMP180;55421;51.600;5.718;2022-10-13T11:22:17;146983.00;;;14.10
68440;BMP180;55421;51.600;5.718;2022-10-13T11:24:51;145797.59;;;14.10
68440;BMP180;55421;51.600;5.718;2022-10-13T11:27:24;191393.80;;;14.10
68440;BMP180;55421;51.600;5.718;2022-10-13T11:29:58;191332.00;;;14.10
68440;BMP180;55421;51.600;5.718;2022-10-13T11:38:05;193784.00;;;14.24
68440;BMP180;55421;51.600;5.718;2022-10-13T11:41:14;145388.80;;;14.20
68440;BMP180;55421;51.600;5.718;2022-10-13T11:44:16;145462.80;;;14.20
68440;BMP180;55421;51.600;5.718;2022-10-13T11:46:59;148343.80;;;14.30
68440;BMP180;55421;51.600;5.718;2022-10-13T11:49:56;149219.20;;;14.30
68440;BMP180;55421;51.600;5.718;2022-10-13T11:52:50;102082.20;;;14.40
68440;BMP180;55421;51.600;5.718;2022-10-13T11:55:35;55411.60;;;14.50
68440;BMP180;55421;51.600;5.718;2022-10-13T11:58:23;103636.20;;;14.42
68440;BMP180;55421;51.600;5.718;2022-10-13T12:00:54;104073.60;;;14.40
68440;BMP180;55421;51.600;5.718;2022-10-13T12:03:28;103136.20;;;14.40
68440;BMP180;55421;51.600;5.718;2022-10-13T12:06:03;103295.20;;;14.40
68440;BMP180;55421;51.600;5.718;2022-10-13T12:08:34;55851.20;;;14.50
68440;BMP180;55421;51.600;5.718;2022-10-13T12:11:02;57414.40;;;14.50
68440;BMP180;55421;51.600;5.718;2022-10-13T12:13:35;59147.60;;;14.60
68440;BMP180;55421;51.600;5.718;2022-10-13T12:16:05;58281.60;;;14.60
68440;BMP180;55421;51.600;5.718;2022-10-13T12:18:36;13644.00;;;14.60
68440;BMP180;55421;51.600;5.718;2022-10-13T12:23:40;9542.40;;;14.60
68440;BMP180;55421;51.600;5.718;2022-10-13T12:26:15;11098.60;;;14.60
68440;BMP180;55421;51.600;5.718;2022-10-13T12:28:58;11261.20;;;14.58
68440;BMP180;55421;51.600;5.718;2022-10-13T12:31:36;14043.60;;;14.58
68440;BMP180;55421;51.600;5.718;2022-10-13T12:34:03;14398.20;;;14.50
68440;BMP180;55421;51.600;5.718;2022-10-13T12:36:33;13122.60;;;14.46
68440;BMP180;55421;51.600;5.718;2022-10-13T12:39:05;11276.60;;;14.40
68440;BMP180;55421;51.600;5.718;2022-10-13T12:41:40;10103.20;;;14.30
68440;BMP180;55421;51.600;5.718;2022-10-13T12:44:24;12181.80;;;14.30
68440;BMP180;55421;51.600;5.718;2022-10-13T12:46:59;13833.00;;;14.30
68440;BMP180;55421;51.600;5.718;2022-10-13T12:49:30;14821.40;;;14.20
68440;BMP180;55421;51.600;5.718;2022-10-13T12:54:38;17105.00;;;14.30
68440;BMP180;55421;51.600;5.718;2022-10-13T12:57:21;17965.00;;;14.30
68440;BMP180;55421;51.600;5.718;2022-10-13T12:59:51;17981.40;;;14.30
68440;BMP180;55421;51.600;5.718;2022-10-13T13:02:30;16801.80;;;14.30
68440;BMP180;55421;51.600;5.718;2022-10-13T13:04:58;16322.00;;;14.30
68440;BMP180;55421;51.600;5.718;2022-10-13T13:07:32;16066.80;;;14.26
68440;BMP180;55421;51.600;5.718;2022-10-13T13:12:42;18025.60;;;14.20
68440;BMP180;55421;51.600;5.718;2022-10-13T13:17:51;23496.20;;;14.20
68440;BMP180;55421;51.600;5.718;2022-10-13T13:20:28;23031.60;;;14.20
68440;BMP180;55421;51.600;5.718;2022-10-13T13:22:56;22748.40;;;14.20
68440;BMP180;55421;51.600;5.718;2022-10-13T13:25:24;24146.00;;;14.22
68440;BMP180;55421;51.600;5.718;2022-10-13T13:27:51;25542.60;;;14.30
68440;BMP180;55421;51.600;5.718;2022-10-13T13:30:22;26604.00;;;14.34
68440;BMP180;55421;51.600;5.718;2022-10-13T13:32:49;27032.20;;;14.30
68440;BMP180;55421;51.600;5.718;2022-10-13T13:35:16;28844.40;;;14.40
68440;BMP180;55421;51.600;5.718;2022-10-13T13:37:46;27635.40;;;14.40
68440;BMP180;55421;51.600;5.718;2022-10-13T13:40:21;30598.40;;;14.40
68440;BMP180;55421;51.600;5.718;2022-10-13T13:42:48;31033.60;;;14.40
68440;BMP180;55421;51.600;5.718;2022-10-13T13:45:18;30433.80;;;14.50
68440;BMP180;55421;51.600;5.718;2022-10-13T13:47:45;31767.00;;;14.50
68440;BMP180;55421;51.600;5.718;2022-10-13T13:50:20;30171.20;;;14.50
68440;BMP180;55421;51.600;5.718;2022-10-13T13:52:47;29213.00;;;14.50
68440;BMP180;55421;51.600;5.718;2022-10-13T13:55:14;30528.20;;;14.50
68440;BMP180;55421;51.600;5.718;2022-10-13T13:57:43;32584.00;;;14.50
68440;BMP180;55421;51.600;5.718;2022-10-13T14:00:15;33839.80;;;14.50
68440;BMP180;55421;51.600;5.718;2022-10-13T14:02:43;33963.20;;;14.50
68440;BMP180;55421;51.600;5.718;2022-10-13T14:05:10;36501.20;;;14.60
68440;BMP180;55421;51.600;5.718;2022-10-13T14:07:38;36946.80;;;14.58
68440;BMP180;55421;51.600;5.718;2022-10-13T14:10:06;36233.20;;;14.50
68440;BMP180;55421;51.600;5.718;2022-10-13T14:12:34;37936.40;;;14.50
68440;BMP180;55421;51.600;5.718;2022-10-13T14:15:00;36701.80;;;14.50
68440;BMP180;55421;51.600;5.718;2022-10-13T14:17:27;36589.20;;;14.50
68440;BMP180;55421;51.600;5.718;2022-10-13T14:19:54;37555.00;;;14.50
68440;BMP180;55421;51.600;5.718;2022-10-13T14:22:21;39679.40;;;14.50
68440;BMP180;55421;51.600;5.718;2022-10-13T14:24:47;40297.20;;;14.48
68440;BMP180;55421;51.600;5.718;2022-10-13T14:27:13;39881.20;;;14.50
68440;BMP180;55421;51.600;5.718;2022-10-13T14:29:40;40599.60;;;14.50
68440;BMP180;55421;51.600;5.718;2022-10-13T14:32:06;43522.60;;;14.50
68440;BMP180;55421;51.600;5.718;2022-10-13T14:34:32;41817.40;;;14.52
68440;BMP180;55421;51.600;5.718;2022-10-13T14:36:59;42397.40;;;14.60
68440;BMP180;55421;51.600;5.718;2022-10-13T14:39:25;42564.00;;;14.60
68440;BMP180;55421;51.600;5.718;2022-10-13T14:41:52;41519.60;;;14.60
68440;BMP180;55421;51.600;5.718;2022-10-13T14:44:18;42479.60;;;14.60
68440;BMP180;55421;51.600;5.718;2022-10-13T14:46:44;49260.00;;;14.50
68440;BMP180;55421;51.600;5.718;2022-10-13T14:49:11;45789.20;;;14.52
68440;BMP180;55421;51.600;5.718;2022-10-13T14:51:37;47745.00;;;14.60
68440;BMP180;55421;51.600;5.718;2022-10-13T14:54:04;49029.80;;;14.60
68440;BMP180;55421;51.600;5.718;2022-10-13T14:56:50;51237.40;;;14.60
68440;BMP180;55421;51.600;5.718;2022-10-13T14:59:16;52409.00;;;14.60
68440;BMP180;55421;51.600;5.718;2022-10-13T15:01:44;49581.40;;;14.60
68440;BMP180;55421;51.600;5.718;2022-10-13T15:04:12;49922.80;;;14.60
68440;BMP180;55421;51.600;5.718;2022-10-13T15:06:39;50594.00;;;14.60
68440;BMP180;55421;51.600;5.718;2022-10-13T15:09:07;53197.00;;;14.64
68440;BMP180;55421;51.600;5.718;2022-10-13T15:11:34;52472.40;;;14.70
68440;BMP180;55421;51.600;5.718;2022-10-13T15:14:00;49187.80;;;14.66
68440;BMP180;55421;51.600;5.718;2022-10-13T15:16:29;49688.40;;;14.60